Kyoto Maru — JD3149 — position and weather

sailwx.info

Track history (hours):
 
Tides and Currents Weather Stations Pressure Air Temp Water Temp Dewpoint Dewpoint Depression Visibility Wind Speed Wind Dir Waves Ship Positions

Kyoto Maru

Last reported at 2018-Jan-23 00:00 UTC. Time now 2018-Jan-23 00:08 UTC.
Position N 35°27' E 139°40'.

Length 34 m; draft 3.8 m.

Type: Tug. MMSI: 431002219.

Date/timePositionNaut miles runAvg speedWind from/ knotsBaromVisibWave heightAir tempDewpointWater temp
2018-Jan-23 00:00N 35°27' E 139°40'4 8.2
2018-Jan-22 23:30N 35°30' E 139°44'2 4.6
2018-Jan-22 23:00N 35°31' E 139°46'1 2.8
2018-Jan-22 22:30N 35°30' E 139°45'3 6.3
2018-Jan-22 22:00N 35°27' E 139°43'1 1.9
2018-Jan-22 21:30N 35°27' E 139°43'3 6.4
2018-Jan-22 21:00N 35°27' E 139°39'0 0.0
2018-Jan-22 20:30N 35°27' E 139°39'0 0.0
2018-Jan-22 20:00N 35°27' E 139°39'0 0.0
2018-Jan-22 19:30N 35°27' E 139°39'0 0.0
2018-Jan-22 19:00N 35°27' E 139°39'0 0.0
2018-Jan-22 18:30N 35°27' E 139°39'0 0.0
2018-Jan-22 18:00N 35°27' E 139°39'0 0.0
2018-Jan-22 17:30N 35°27' E 139°39'0 0.0
2018-Jan-22 17:00N 35°27' E 139°39'0 0.0
2018-Jan-22 16:30N 35°27' E 139°39'0 0.0
2018-Jan-22 16:00N 35°27' E 139°39'0 0.0
2018-Jan-22 15:30N 35°27' E 139°39'0 0.0
2018-Jan-22 15:00N 35°27' E 139°39'0 0.0
2018-Jan-22 14:30N 35°27' E 139°39'0 0.0
2018-Jan-22 14:00N 35°27' E 139°39'0 0.0
2018-Jan-22 13:30N 35°27' E 139°39'0 0.0
2018-Jan-22 13:00N 35°27' E 139°39'0 0.0
2018-Jan-22 12:30N 35°27' E 139°39'0 0.0
2018-Jan-22 12:00N 35°27' E 139°39'0 0.1
2018-Jan-22 11:30N 35°27' E 139°39'4 7.4
2018-Jan-22 11:00N 35°28' E 139°44'3 5.6
2018-Jan-22 10:30N 35°29' E 139°47'0 0.3
2018-Jan-22 10:01N 35°29' E 139°47'1 1.8
2018-Jan-22 09:30N 35°29' E 139°46'0 0.1
2018-Jan-22 09:00N 35°29' E 139°46'1 2.6
2018-Jan-22 08:30N 35°28' E 139°45'4 7.2
2018-Jan-22 08:01N 35°26' E 139°41'0 0.1
2018-Jan-22 07:30N 35°26' E 139°41'0 0.7
2018-Jan-22 07:01N 35°27' E 139°41'1 1.7
2018-Jan-22 06:30N 35°27' E 139°40'4 7.5
2018-Jan-22 06:00N 35°23' E 139°41'0 1.0
2018-Jan-22 05:31N 35°24' E 139°41'2 3.1
2018-Jan-22 05:00N 35°23' E 139°41'1 2.6
2018-Jan-22 04:31N 35°24' E 139°42'4 7.6
2018-Jan-22 04:01N 35°27' E 139°40'0 0.7
2018-Jan-22 03:30N 35°27' E 139°40'0 0.0
2018-Jan-22 03:01N 35°27' E 139°40'0 0.0
2018-Jan-22 02:30N 35°27' E 139°40'0 0.0
2018-Jan-22 02:00N 35°27' E 139°40'0 0.0
2018-Jan-22 01:31N 35°27' E 139°40'0 0.0
2018-Jan-22 01:00N 35°27' E 139°40'0 0.0
2018-Jan-22 00:30N 35°27' E 139°40'0 0.0
2018-Jan-22 00:01N 35°27' E 139°40'0 0.0
2018-Jan-21 23:30N 35°27' E 139°40'0 0.0
2018-Jan-21 23:00N 35°27' E 139°40'0 0.0
2018-Jan-21 22:30N 35°27' E 139°40'0 0.0
2018-Jan-21 22:01N 35°27' E 139°40'0 0.0
2018-Jan-21 21:31N 35°27' E 139°40'0 0.0
2018-Jan-21 21:00N 35°27' E 139°40'0 0.0
2018-Jan-21 20:31N 35°27' E 139°40'0 0.0
2018-Jan-21 20:00N 35°27' E 139°40'0 0.0
2018-Jan-21 19:31N 35°27' E 139°40'0 0.0
2018-Jan-21 19:00N 35°27' E 139°40'0 0.0
2018-Jan-21 18:30N 35°27' E 139°40'0 0.0
2018-Jan-21 18:00N 35°27' E 139°40'0 0.0
2018-Jan-21 17:31N 35°27' E 139°40'0 0.0
2018-Jan-21 17:01N 35°27' E 139°40'0 0.0
2018-Jan-21 16:31N 35°27' E 139°40'0 0.0
2018-Jan-21 16:00N 35°27' E 139°40'0 0.0
2018-Jan-21 15:30N 35°27' E 139°40'0 0.0
2018-Jan-21 15:01N 35°27' E 139°40'0 0.0
2018-Jan-21 14:30N 35°27' E 139°40'0 0.0
2018-Jan-21 14:00N 35°27' E 139°40'0 0.0
2018-Jan-21 13:31N 35°27' E 139°40'0 0.0
2018-Jan-21 13:01N 35°27' E 139°40'0 0.0
2018-Jan-21 12:30N 35°27' E 139°40'0 0.0
2018-Jan-21 12:01N 35°27' E 139°40'0 0.0
2018-Jan-21 11:31N 35°27' E 139°40'0 0.0
2018-Jan-21 11:01N 35°27' E 139°40'0 0.0
2018-Jan-21 10:30N 35°27' E 139°40'0 0.0
2018-Jan-21 10:01N 35°27' E 139°40'0 0.0
2018-Jan-21 09:30N 35°27' E 139°40'0 0.0
2018-Jan-21 09:00N 35°27' E 139°40'0 0.0
2018-Jan-21 08:31N 35°27' E 139°40'0 0.0
2018-Jan-21 08:00N 35°27' E 139°40'0 0.0
2018-Jan-21 07:31N 35°27' E 139°40'0 0.0
2018-Jan-21 07:01N 35°27' E 139°40'0 0.0
2018-Jan-21 06:31N 35°27' E 139°40'0 0.0
2018-Jan-21 06:00N 35°27' E 139°40'0 0.0
2018-Jan-21 05:31N 35°27' E 139°40'0 0.0
2018-Jan-21 05:00N 35°27' E 139°40'0 0.0
2018-Jan-21 04:31N 35°27' E 139°40'0 0.0
2018-Jan-21 04:00N 35°27' E 139°40'4 8.9
2018-Jan-21 03:31N 35°30' E 139°44'2 4.6
2018-Jan-21 03:00N 35°31' E 139°46'1 2.5
2018-Jan-21 02:31N 35°30' E 139°45'4 7.1
2018-Jan-21 02:00N 35°27' E 139°43'1 2.0
2018-Jan-21 01:30N 35°28' E 139°44'0 0.0
2018-Jan-21 01:00N 35°28' E 139°44'0 0.0
2018-Jan-21 00:30N 35°28' E 139°44'0 0.0
2018-Jan-21 00:01N 35°28' E 139°44'0 0.0
2018-Jan-20 23:30N 35°28' E 139°44'0 0.1
2018-Jan-20 23:01N 35°28' E 139°44'0 0.0
2018-Jan-20 22:30N 35°28' E 139°44'3 5.6
2018-Jan-20 22:01N 35°29' E 139°47'2 3.8
2018-Jan-20 21:29N 35°31' E 139°46'3 7.2
2018-Jan-20 21:01N 35°29' E 139°42'3 6.3
2018-Jan-20 20:30N 35°27' E 139°40'0 0.0
2018-Jan-20 20:00N 35°27' E 139°40'0 0.0
2018-Jan-20 19:30N 35°27' E 139°40'0 0.0
2018-Jan-20 19:01N 35°27' E 139°40'0 0.0
2018-Jan-20 18:31N 35°27' E 139°40'0 0.0
2018-Jan-20 18:01N 35°27' E 139°40'0 0.0
2018-Jan-20 17:31N 35°27' E 139°40'0 0.0
2018-Jan-20 17:00N 35°27' E 139°40'0 0.0
2018-Jan-20 16:31N 35°27' E 139°40'0 0.0
2018-Jan-20 16:00N 35°27' E 139°40'0 0.0
2018-Jan-20 15:30N 35°27' E 139°40'0 0.0
2018-Jan-20 15:00N 35°27' E 139°40'0 0.0
2018-Jan-20 14:30N 35°27' E 139°40'0 0.0
2018-Jan-20 14:00N 35°27' E 139°40'0 0.0
2018-Jan-20 13:30N 35°27' E 139°40'0 0.0
2018-Jan-20 13:01N 35°27' E 139°40'0 0.0
2018-Jan-20 12:30N 35°27' E 139°40'0 0.0
2018-Jan-20 12:01N 35°27' E 139°40'0 0.0
2018-Jan-20 11:30N 35°27' E 139°40'0 0.0
2018-Jan-20 11:00N 35°27' E 139°40'0 0.0
2018-Jan-20 10:31N 35°27' E 139°40'0 0.0
2018-Jan-20 10:01N 35°27' E 139°40'0 0.0
2018-Jan-20 09:31N 35°27' E 139°40'0 0.0
2018-Jan-20 09:01N 35°27' E 139°40'0 0.0
2018-Jan-20 08:30N 35°27' E 139°40'0 0.0
2018-Jan-20 08:00N 35°27' E 139°40'0 0.0
2018-Jan-20 07:31N 35°27' E 139°40'0 0.0
2018-Jan-20 07:01N 35°27' E 139°40'0 0.0
2018-Jan-20 06:31N 35°27' E 139°40'0 0.0
2018-Jan-20 06:00N 35°27' E 139°40'0 0.0
2018-Jan-20 05:31N 35°27' E 139°40'0 0.0
2018-Jan-20 05:00N 35°27' E 139°40'0 0.0
2018-Jan-20 04:31N 35°27' E 139°40'0 0.0
2018-Jan-20 04:00N 35°27' E 139°40'0 0.0
2018-Jan-20 03:30N 35°27' E 139°40'0 0.0
2018-Jan-20 03:01N 35°27' E 139°40'0 0.0
2018-Jan-20 02:30N 35°27' E 139°40'2 4.0
2018-Jan-20 02:00N 35°27' E 139°42'1 2.4
2018-Jan-20 01:31N 35°28' E 139°43'0 0.0
2018-Jan-20 01:00N 35°28' E 139°43'0 0.2
2018-Jan-20 00:30N 35°28' E 139°43'1 2.4
2018-Jan-20 00:00N 35°27' E 139°44'2 3.1
2018-Jan-19 23:31N 35°27' E 139°42'0 0.0
2018-Jan-19 23:00N 35°27' E 139°42'0 0.0
2018-Jan-19 22:30N 35°27' E 139°42'1 1.2
2018-Jan-19 22:01N 35°27' E 139°41'1 2.7
2018-Jan-19 21:30N 35°26' E 139°42'1 1.7
2018-Jan-19 21:00N 35°25' E 139°43'3 6.2
2018-Jan-19 20:30N 35°27' E 139°40'0 0.0
2018-Jan-19 20:00N 35°27' E 139°40'0 0.0
2018-Jan-19 19:30N 35°27' E 139°40'0 0.0
2018-Jan-19 19:00N 35°27' E 139°40'0 0.0
2018-Jan-19 18:30N 35°27' E 139°40'0 0.0
2018-Jan-19 18:01N 35°27' E 139°40'0 0.0
2018-Jan-19 17:30N 35°27' E 139°40'0 0.0
2018-Jan-19 17:01N 35°27' E 139°40'0 0.0
2018-Jan-19 16:30N 35°27' E 139°40'0 0.0
2018-Jan-19 16:00N 35°27' E 139°40'0 0.0
2018-Jan-19 15:30N 35°27' E 139°40'0 0.0
2018-Jan-19 15:00N 35°27' E 139°40'0 0.0
2018-Jan-19 14:30N 35°27' E 139°40'0 0.0
2018-Jan-19 14:01N 35°27' E 139°40'0 0.0
2018-Jan-19 13:30N 35°27' E 139°40'0 0.0
2018-Jan-19 13:00N 35°27' E 139°40'0 0.0
2018-Jan-19 12:29N 35°27' E 139°40'0 0.0
2018-Jan-19 12:00N 35°27' E 139°40'0 0.0
2018-Jan-19 11:30N 35°27' E 139°40'0 0.0
2018-Jan-19 11:00N 35°27' E 139°40'0 0.0
2018-Jan-19 10:30N 35°27' E 139°40'0 0.0
2018-Jan-19 10:00N 35°27' E 139°40'0 0.0
2018-Jan-19 09:30N 35°27' E 139°40'0 0.0
2018-Jan-19 09:01N 35°27' E 139°40'1 2.7
2018-Jan-19 08:30N 35°27' E 139°41'0 0.2
2018-Jan-19 08:01N 35°27' E 139°41'2 4.2
2018-Jan-19 07:30N 35°26' E 139°43'1 1.4
2018-Jan-19 07:00N 35°26' E 139°42'2 4.5
2018-Jan-19 06:30N 35°28' E 139°40'0 0.0
2018-Jan-19 06:00N 35°28' E 139°40'0 0.0
2018-Jan-19 05:30N 35°28' E 139°40'0 0.0
2018-Jan-19 05:00N 35°28' E 139°40'0 0.0
2018-Jan-19 04:30N 35°28' E 139°40'0 0.0
2018-Jan-19 04:01N 35°28' E 139°40'0 0.0
2018-Jan-19 03:30N 35°28' E 139°40'0 0.0
2018-Jan-19 03:01N 35°28' E 139°40'0 0.0
2018-Jan-19 02:30N 35°28' E 139°40'0 0.0
2018-Jan-19 02:00N 35°28' E 139°40'0 0.0
2018-Jan-19 01:30N 35°28' E 139°40'0 0.0
2018-Jan-19 01:00N 35°28' E 139°40'2 3.4
2018-Jan-19 00:30N 35°29' E 139°39'0 0.0
2018-Jan-19 00:00N 35°29' E 139°39'1 1.1
2018-Jan-18 23:30N 35°28' E 139°39'3 5.5
2018-Jan-18 23:00N 35°27' E 139°42'1 1.7
2018-Jan-18 22:31N 35°26' E 139°42'0 0.2
2018-Jan-18 22:00N 35°26' E 139°42'3 5.2
2018-Jan-18 21:31N 35°27' E 139°40'0 0.0
2018-Jan-18 21:01N 35°27' E 139°40'0 0.0
2018-Jan-18 20:31N 35°27' E 139°40'0 0.0
2018-Jan-18 20:00N 35°27' E 139°40'0 0.0
2018-Jan-18 19:30N 35°27' E 139°40'0 0.0
2018-Jan-18 19:01N 35°27' E 139°40'0 0.0
2018-Jan-18 18:30N 35°27' E 139°40'0 0.0
2018-Jan-18 18:00N 35°27' E 139°40'0 0.0
2018-Jan-18 17:30N 35°27' E 139°40'0 0.0
2018-Jan-18 17:01N 35°27' E 139°40'0 0.0
2018-Jan-18 16:31N 35°27' E 139°40'0 0.0
2018-Jan-18 16:01N 35°27' E 139°40'0 0.0
2018-Jan-18 15:31N 35°27' E 139°40'0 0.0
2018-Jan-18 15:01N 35°27' E 139°40'0 0.0
2018-Jan-18 14:31N 35°27' E 139°40'0 0.0
2018-Jan-18 14:00N 35°27' E 139°40'0 0.0
2018-Jan-18 13:30N 35°27' E 139°40'0 0.0
2018-Jan-18 13:00N 35°27' E 139°40'0 0.0
2018-Jan-18 12:30N 35°27' E 139°40'0 0.0
2018-Jan-18 12:01N 35°27' E 139°40'0 0.0
2018-Jan-18 11:30N 35°27' E 139°40'0 0.0
2018-Jan-18 11:01N 35°27' E 139°40'0 0.0
2018-Jan-18 10:31N 35°27' E 139°40'0 0.0
2018-Jan-18 10:01N 35°27' E 139°40'0 0.0
2018-Jan-18 09:30N 35°27' E 139°40'0 0.0
2018-Jan-18 09:00N 35°27' E 139°40'0 0.0
2018-Jan-18 08:31N 35°27' E 139°40'0 0.0
2018-Jan-18 07:59N 35°27' E 139°40'0 0.0
2018-Jan-18 07:30N 35°27' E 139°40'0 0.0
2018-Jan-18 07:01N 35°27' E 139°40'0 0.0
2018-Jan-18 06:30N 35°27' E 139°40'0 0.0
2018-Jan-18 06:01N 35°27' E 139°40'0 0.0
2018-Jan-18 05:31N 35°27' E 139°40'0 0.0
2018-Jan-18 05:01N 35°27' E 139°40'0 0.0
2018-Jan-18 04:31N 35°27' E 139°40'0 0.0
2018-Jan-18 04:01N 35°27' E 139°40'0 0.0
2018-Jan-18 03:30N 35°27' E 139°40'0 0.0
2018-Jan-18 03:00N 35°27' E 139°40'0 0.0
2018-Jan-18 02:31N 35°27' E 139°40'0 0.0
2018-Jan-18 02:01N 35°27' E 139°40'0 0.0
2018-Jan-18 01:31N 35°27' E 139°40'0 0.0
2018-Jan-18 01:01N 35°27' E 139°40'0 0.0
2018-Jan-18 00:00N 35°27' E 139°40'0 0.0
2018-Jan-17 23:58N 35°27' E 139°40'  
Track history (hours):
 
Tides and Currents Weather Stations Pressure Air Temp Water Temp Dewpoint Dewpoint Depression Visibility Wind Speed Wind Dir Waves Ship Positions

Kyoto Maru

Last reported at 2018-Jan-23 00:00 UTC. Time now 2018-Jan-23 00:08 UTC.
Position N 35°27' E 139°40'.

Length 34 m; draft 3.8 m.

Type: Tug. MMSI: 431002219.

Date/timePositionNaut miles runAvg speedWind from/ knotsBaromVisibWave heightAir tempDewpointWater temp
2018-Jan-23 00:00N 35°27' E 139°40'4 8.2
2018-Jan-22 23:30N 35°30' E 139°44'2 4.6
2018-Jan-22 23:00N 35°31' E 139°46'1 2.8
2018-Jan-22 22:30N 35°30' E 139°45'3 6.3
2018-Jan-22 22:00N 35°27' E 139°43'1 1.9
2018-Jan-22 21:30N 35°27' E 139°43'3 6.4
2018-Jan-22 21:00N 35°27' E 139°39'0 0.0
2018-Jan-22 20:30N 35°27' E 139°39'0 0.0
2018-Jan-22 20:00N 35°27' E 139°39'0 0.0
2018-Jan-22 19:30N 35°27' E 139°39'0 0.0
2018-Jan-22 19:00N 35°27' E 139°39'0 0.0
2018-Jan-22 18:30N 35°27' E 139°39'0 0.0
2018-Jan-22 18:00N 35°27' E 139°39'0 0.0
2018-Jan-22 17:30N 35°27' E 139°39'0 0.0
2018-Jan-22 17:00N 35°27' E 139°39'0 0.0
2018-Jan-22 16:30N 35°27' E 139°39'0 0.0
2018-Jan-22 16:00N 35°27' E 139°39'0 0.0
2018-Jan-22 15:30N 35°27' E 139°39'0 0.0
2018-Jan-22 15:00N 35°27' E 139°39'0 0.0
2018-Jan-22 14:30N 35°27' E 139°39'0 0.0
2018-Jan-22 14:00N 35°27' E 139°39'0 0.0
2018-Jan-22 13:30N 35°27' E 139°39'0 0.0
2018-Jan-22 13:00N 35°27' E 139°39'0 0.0
2018-Jan-22 12:30N 35°27' E 139°39'0 0.0
2018-Jan-22 12:00N 35°27' E 139°39'0 0.1
2018-Jan-22 11:30N 35°27' E 139°39'4 7.4
2018-Jan-22 11:00N 35°28' E 139°44'3 5.6
2018-Jan-22 10:30N 35°29' E 139°47'0 0.3
2018-Jan-22 10:01N 35°29' E 139°47'1 1.8
2018-Jan-22 09:30N 35°29' E 139°46'0 0.1
2018-Jan-22 09:00N 35°29' E 139°46'1 2.6
2018-Jan-22 08:30N 35°28' E 139°45'4 7.2
2018-Jan-22 08:01N 35°26' E 139°41'0 0.1
2018-Jan-22 07:30N 35°26' E 139°41'0 0.7
2018-Jan-22 07:01N 35°27' E 139°41'1 1.7
2018-Jan-22 06:30N 35°27' E 139°40'4 7.5
2018-Jan-22 06:00N 35°23' E 139°41'0 1.0
2018-Jan-22 05:31N 35°24' E 139°41'2 3.1
2018-Jan-22 05:00N 35°23' E 139°41'1 2.6
2018-Jan-22 04:31N 35°24' E 139°42'4 7.6
2018-Jan-22 04:01N 35°27' E 139°40'0 0.7
2018-Jan-22 03:30N 35°27' E 139°40'0 0.0
2018-Jan-22 03:01N 35°27' E 139°40'0 0.0
2018-Jan-22 02:30N 35°27' E 139°40'0 0.0
2018-Jan-22 02:00N 35°27' E 139°40'0 0.0
2018-Jan-22 01:31N 35°27' E 139°40'0 0.0
2018-Jan-22 01:00N 35°27' E 139°40'0 0.0
2018-Jan-22 00:30N 35°27' E 139°40'0 0.0
2018-Jan-22 00:01N 35°27' E 139°40'0 0.0
2018-Jan-21 23:30N 35°27' E 139°40'0 0.0
2018-Jan-21 23:00N 35°27' E 139°40'0 0.0
2018-Jan-21 22:30N 35°27' E 139°40'0 0.0
2018-Jan-21 22:01N 35°27' E 139°40'0 0.0
2018-Jan-21 21:31N 35°27' E 139°40'0 0.0
2018-Jan-21 21:00N 35°27' E 139°40'0 0.0
2018-Jan-21 20:31N 35°27' E 139°40'0 0.0
2018-Jan-21 20:00N 35°27' E 139°40'0 0.0
2018-Jan-21 19:31N 35°27' E 139°40'0 0.0
2018-Jan-21 19:00N 35°27' E 139°40'0 0.0
2018-Jan-21 18:30N 35°27' E 139°40'0 0.0
2018-Jan-21 18:00N 35°27' E 139°40'0 0.0
2018-Jan-21 17:31N 35°27' E 139°40'0 0.0
2018-Jan-21 17:01N 35°27' E 139°40'0 0.0
2018-Jan-21 16:31N 35°27' E 139°40'0 0.0
2018-Jan-21 16:00N 35°27' E 139°40'0 0.0
2018-Jan-21 15:30N 35°27' E 139°40'0 0.0
2018-Jan-21 15:01N 35°27' E 139°40'0 0.0
2018-Jan-21 14:30N 35°27' E 139°40'0 0.0
2018-Jan-21 14:00N 35°27' E 139°40'0 0.0
2018-Jan-21 13:31N 35°27' E 139°40'0 0.0
2018-Jan-21 13:01N 35°27' E 139°40'0 0.0
2018-Jan-21 12:30N 35°27' E 139°40'0 0.0
2018-Jan-21 12:01N 35°27' E 139°40'0 0.0
2018-Jan-21 11:31N 35°27' E 139°40'0 0.0
2018-Jan-21 11:01N 35°27' E 139°40'0 0.0
2018-Jan-21 10:30N 35°27' E 139°40'0 0.0
2018-Jan-21 10:01N 35°27' E 139°40'0 0.0
2018-Jan-21 09:30N 35°27' E 139°40'0 0.0
2018-Jan-21 09:00N 35°27' E 139°40'0 0.0
2018-Jan-21 08:31N 35°27' E 139°40'0 0.0
2018-Jan-21 08:00N 35°27' E 139°40'0 0.0
2018-Jan-21 07:31N 35°27' E 139°40'0 0.0
2018-Jan-21 07:01N 35°27' E 139°40'0 0.0
2018-Jan-21 06:31N 35°27' E 139°40'0 0.0
2018-Jan-21 06:00N 35°27' E 139°40'0 0.0
2018-Jan-21 05:31N 35°27' E 139°40'0 0.0
2018-Jan-21 05:00N 35°27' E 139°40'0 0.0
2018-Jan-21 04:31N 35°27' E 139°40'0 0.0
2018-Jan-21 04:00N 35°27' E 139°40'4 8.9
2018-Jan-21 03:31N 35°30' E 139°44'2 4.6
2018-Jan-21 03:00N 35°31' E 139°46'1 2.5
2018-Jan-21 02:31N 35°30' E 139°45'4 7.1
2018-Jan-21 02:00N 35°27' E 139°43'1 2.0
2018-Jan-21 01:30N 35°28' E 139°44'0 0.0
2018-Jan-21 01:00N 35°28' E 139°44'0 0.0
2018-Jan-21 00:30N 35°28' E 139°44'0 0.0
2018-Jan-21 00:01N 35°28' E 139°44'0 0.0
2018-Jan-20 23:30N 35°28' E 139°44'0 0.1
2018-Jan-20 23:01N 35°28' E 139°44'0 0.0
2018-Jan-20 22:30N 35°28' E 139°44'3 5.6
2018-Jan-20 22:01N 35°29' E 139°47'2 3.8
2018-Jan-20 21:29N 35°31' E 139°46'3 7.2
2018-Jan-20 21:01N 35°29' E 139°42'3 6.3
2018-Jan-20 20:30N 35°27' E 139°40'0 0.0
2018-Jan-20 20:00N 35°27' E 139°40'0 0.0
2018-Jan-20 19:30N 35°27' E 139°40'0 0.0
2018-Jan-20 19:01N 35°27' E 139°40'0 0.0
2018-Jan-20 18:31N 35°27' E 139°40'0 0.0
2018-Jan-20 18:01N 35°27' E 139°40'0 0.0
2018-Jan-20 17:31N 35°27' E 139°40'0 0.0
2018-Jan-20 17:00N 35°27' E 139°40'0 0.0
2018-Jan-20 16:31N 35°27' E 139°40'0 0.0
2018-Jan-20 16:00N 35°27' E 139°40'0 0.0
2018-Jan-20 15:30N 35°27' E 139°40'0 0.0
2018-Jan-20 15:00N 35°27' E 139°40'0 0.0
2018-Jan-20 14:30N 35°27' E 139°40'0 0.0
2018-Jan-20 14:00N 35°27' E 139°40'0 0.0
2018-Jan-20 13:30N 35°27' E 139°40'0 0.0
2018-Jan-20 13:01N 35°27' E 139°40'0 0.0
2018-Jan-20 12:30N 35°27' E 139°40'0 0.0
2018-Jan-20 12:01N 35°27' E 139°40'0 0.0
2018-Jan-20 11:30N 35°27' E 139°40'0 0.0
2018-Jan-20 11:00N 35°27' E 139°40'0 0.0
2018-Jan-20 10:31N 35°27' E 139°40'0 0.0
2018-Jan-20 10:01N 35°27' E 139°40'0 0.0
2018-Jan-20 09:31N 35°27' E 139°40'0 0.0
2018-Jan-20 09:01N 35°27' E 139°40'0 0.0
2018-Jan-20 08:30N 35°27' E 139°40'0 0.0
2018-Jan-20 08:00N 35°27' E 139°40'0 0.0
2018-Jan-20 07:31N 35°27' E 139°40'0 0.0
2018-Jan-20 07:01N 35°27' E 139°40'0 0.0
2018-Jan-20 06:31N 35°27' E 139°40'0 0.0
2018-Jan-20 06:00N 35°27' E 139°40'0 0.0
2018-Jan-20 05:31N 35°27' E 139°40'0 0.0
2018-Jan-20 05:00N 35°27' E 139°40'0 0.0
2018-Jan-20 04:31N 35°27' E 139°40'0 0.0
2018-Jan-20 04:00N 35°27' E 139°40'0 0.0
2018-Jan-20 03:30N 35°27' E 139°40'0 0.0
2018-Jan-20 03:01N 35°27' E 139°40'0 0.0
2018-Jan-20 02:30N 35°27' E 139°40'2 4.0
2018-Jan-20 02:00N 35°27' E 139°42'1 2.4
2018-Jan-20 01:31N 35°28' E 139°43'0 0.0
2018-Jan-20 01:00N 35°28' E 139°43'0 0.2
2018-Jan-20 00:30N 35°28' E 139°43'1 2.4
2018-Jan-20 00:00N 35°27' E 139°44'2 3.1
2018-Jan-19 23:31N 35°27' E 139°42'0 0.0
2018-Jan-19 23:00N 35°27' E 139°42'0 0.0
2018-Jan-19 22:30N 35°27' E 139°42'1 1.2
2018-Jan-19 22:01N 35°27' E 139°41'1 2.7
2018-Jan-19 21:30N 35°26' E 139°42'1 1.7
2018-Jan-19 21:00N 35°25' E 139°43'3 6.2
2018-Jan-19 20:30N 35°27' E 139°40'0 0.0
2018-Jan-19 20:00N 35°27' E 139°40'0 0.0
2018-Jan-19 19:30N 35°27' E 139°40'0 0.0
2018-Jan-19 19:00N 35°27' E 139°40'0 0.0
2018-Jan-19 18:30N 35°27' E 139°40'0 0.0
2018-Jan-19 18:01N 35°27' E 139°40'0 0.0
2018-Jan-19 17:30N 35°27' E 139°40'0 0.0
2018-Jan-19 17:01N 35°27' E 139°40'0 0.0
2018-Jan-19 16:30N 35°27' E 139°40'0 0.0
2018-Jan-19 16:00N 35°27' E 139°40'0 0.0
2018-Jan-19 15:30N 35°27' E 139°40'0 0.0
2018-Jan-19 15:00N 35°27' E 139°40'0 0.0
2018-Jan-19 14:30N 35°27' E 139°40'0 0.0
2018-Jan-19 14:01N 35°27' E 139°40'0 0.0
2018-Jan-19 13:30N 35°27' E 139°40'0 0.0
2018-Jan-19 13:00N 35°27' E 139°40'0 0.0
2018-Jan-19 12:29N 35°27' E 139°40'0 0.0
2018-Jan-19 12:00N 35°27' E 139°40'0 0.0
2018-Jan-19 11:30N 35°27' E 139°40'0 0.0
2018-Jan-19 11:00N 35°27' E 139°40'0 0.0
2018-Jan-19 10:30N 35°27' E 139°40'0 0.0
2018-Jan-19 10:00N 35°27' E 139°40'0 0.0
2018-Jan-19 09:30N 35°27' E 139°40'0 0.0
2018-Jan-19 09:01N 35°27' E 139°40'1 2.7
2018-Jan-19 08:30N 35°27' E 139°41'0 0.2
2018-Jan-19 08:01N 35°27' E 139°41'2 4.2
2018-Jan-19 07:30N 35°26' E 139°43'1 1.4
2018-Jan-19 07:00N 35°26' E 139°42'2 4.5
2018-Jan-19 06:30N 35°28' E 139°40'0 0.0
2018-Jan-19 06:00N 35°28' E 139°40'0 0.0
2018-Jan-19 05:30N 35°28' E 139°40'0 0.0
2018-Jan-19 05:00N 35°28' E 139°40'0 0.0
2018-Jan-19 04:30N 35°28' E 139°40'0 0.0
2018-Jan-19 04:01N 35°28' E 139°40'0 0.0
2018-Jan-19 03:30N 35°28' E 139°40'0 0.0
2018-Jan-19 03:01N 35°28' E 139°40'0 0.0
2018-Jan-19 02:30N 35°28' E 139°40'0 0.0
2018-Jan-19 02:00N 35°28' E 139°40'0 0.0
2018-Jan-19 01:30N 35°28' E 139°40'0 0.0
2018-Jan-19 01:00N 35°28' E 139°40'2 3.4
2018-Jan-19 00:30N 35°29' E 139°39'0 0.0
2018-Jan-19 00:00N 35°29' E 139°39'1 1.1
2018-Jan-18 23:30N 35°28' E 139°39'3 5.5
2018-Jan-18 23:00N 35°27' E 139°42'1 1.7
2018-Jan-18 22:31N 35°26' E 139°42'0 0.2
2018-Jan-18 22:00N 35°26' E 139°42'3 5.2
2018-Jan-18 21:31N 35°27' E 139°40'0 0.0
2018-Jan-18 21:01N 35°27' E 139°40'0 0.0
2018-Jan-18 20:31N 35°27' E 139°40'0 0.0
2018-Jan-18 20:00N 35°27' E 139°40'0 0.0
2018-Jan-18 19:30N 35°27' E 139°40'0 0.0
2018-Jan-18 19:01N 35°27' E 139°40'0 0.0
2018-Jan-18 18:30N 35°27' E 139°40'0 0.0
2018-Jan-18 18:00N 35°27' E 139°40'0 0.0
2018-Jan-18 17:30N 35°27' E 139°40'0 0.0
2018-Jan-18 17:01N 35°27' E 139°40'0 0.0
2018-Jan-18 16:31N 35°27' E 139°40'0 0.0
2018-Jan-18 16:01N 35°27' E 139°40'0 0.0
2018-Jan-18 15:31N 35°27' E 139°40'0 0.0
2018-Jan-18 15:01N 35°27' E 139°40'0 0.0
2018-Jan-18 14:31N 35°27' E 139°40'0 0.0
2018-Jan-18 14:00N 35°27' E 139°40'0 0.0
2018-Jan-18 13:30N 35°27' E 139°40'0 0.0
2018-Jan-18 13:00N 35°27' E 139°40'0 0.0
2018-Jan-18 12:30N 35°27' E 139°40'0 0.0
2018-Jan-18 12:01N 35°27' E 139°40'0 0.0
2018-Jan-18 11:30N 35°27' E 139°40'0 0.0
2018-Jan-18 11:01N 35°27' E 139°40'0 0.0
2018-Jan-18 10:31N 35°27' E 139°40'0 0.0
2018-Jan-18 10:01N 35°27' E 139°40'0 0.0
2018-Jan-18 09:30N 35°27' E 139°40'0 0.0
2018-Jan-18 09:00N 35°27' E 139°40'0 0.0
2018-Jan-18 08:31N 35°27' E 139°40'0 0.0
2018-Jan-18 07:59N 35°27' E 139°40'0 0.0
2018-Jan-18 07:30N 35°27' E 139°40'0 0.0
2018-Jan-18 07:01N 35°27' E 139°40'0 0.0
2018-Jan-18 06:30N 35°27' E 139°40'0 0.0
2018-Jan-18 06:01N 35°27' E 139°40'0 0.0
2018-Jan-18 05:31N 35°27' E 139°40'0 0.0
2018-Jan-18 05:01N 35°27' E 139°40'0 0.0
2018-Jan-18 04:31N 35°27' E 139°40'0 0.0
2018-Jan-18 04:01N 35°27' E 139°40'0 0.0
2018-Jan-18 03:30N 35°27' E 139°40'0 0.0
2018-Jan-18 03:00N 35°27' E 139°40'0 0.0
2018-Jan-18 02:31N 35°27' E 139°40'0 0.0
2018-Jan-18 02:01N 35°27' E 139°40'0 0.0
2018-Jan-18 01:31N 35°27' E 139°40'0 0.0
2018-Jan-18 01:01N 35°27' E 139°40'0 0.0
2018-Jan-18 00:00N 35°27' E 139°40'0 0.0
2018-Jan-17 23:58N 35°27' E 139°40'  

Dump ship's entire track history